createdAt,value
2023-02-08T00:01:42.053Z,63.86
2023-02-08T00:04:10.450Z,65.48
2023-02-08T00:06:42.028Z,64.62
2023-02-08T00:09:15.401Z,63.45
2023-02-08T00:11:51.350Z,62.67
2023-02-08T00:14:19.783Z,62.02
2023-02-08T00:17:08.284Z,61.32
2023-02-08T00:19:39.091Z,60.67
2023-02-08T00:22:10.663Z,59.31
2023-02-08T00:24:43.876Z,57.41
2023-02-08T00:27:15.947Z,61.01
2023-02-08T00:29:47.264Z,64.48
2023-02-08T00:32:23.729Z,64.41
2023-02-08T00:34:55.283Z,63.44
2023-02-08T00:37:26.215Z,62.46
2023-02-08T00:39:56.992Z,61.21
2023-02-08T00:42:33.517Z,60.79
2023-02-08T00:45:02.214Z,60.86
2023-02-08T00:47:30.786Z,60.29
2023-02-08T00:50:08.079Z,59.97
2023-02-08T00:52:51.414Z,60.07
2023-02-08T00:55:19.879Z,60.20
2023-02-08T00:57:51.027Z,60.85
2023-02-08T01:00:19.760Z,60.89
2023-02-08T01:02:51.152Z,60.60
2023-02-08T01:05:19.739Z,60.83
2023-02-08T01:07:51.084Z,60.75
2023-02-08T01:10:40.115Z,60.39
2023-02-08T01:13:15.077Z,60.64
2023-02-08T01:15:48.394Z,60.86
2023-02-08T01:18:16.925Z,60.65
2023-02-08T01:20:47.799Z,60.40
2023-02-08T01:23:19.235Z,60.34
2023-02-08T01:25:49.979Z,60.93
2023-02-08T01:28:19.385Z,60.57
2023-02-08T01:30:50.012Z,60.10
2023-02-08T01:33:21.964Z,60.48
2023-02-08T01:35:55.870Z,60.98
2023-02-08T01:38:27.522Z,61.46
2023-02-08T01:40:56.018Z,61.07
2023-02-08T01:43:33.194Z,61.61
2023-02-08T01:46:01.827Z,61.44
2023-02-08T01:48:40.603Z,61.24
2023-02-08T01:51:13.015Z,61.14
2023-02-08T01:53:43.782Z,60.10
2023-02-08T01:56:21.595Z,60.41
2023-02-08T01:58:56.629Z,60.50
2023-02-08T02:01:28.301Z,60.30
2023-02-08T02:04:08.947Z,60.38
2023-02-08T02:06:45.606Z,60.08
2023-02-08T02:10:21.171Z,59.76
2023-02-08T02:13:11.668Z,59.48
2023-02-08T02:15:50.923Z,58.80
2023-02-08T02:18:30.337Z,59.97
2023-02-08T02:21:31.524Z,65.56
2023-02-08T02:25:10.924Z,66.00
2023-02-08T02:28:45.145Z,63.67
2023-02-08T02:32:14.453Z,62.25
2023-02-08T02:35:35.796Z,61.14
2023-02-08T02:38:53.605Z,59.91
2023-02-08T02:42:00.616Z,59.76
2023-02-08T02:44:55.002Z,59.73
2023-02-08T02:47:56.120Z,58.55
2023-02-08T02:50:58.191Z,59.90
2023-02-08T02:53:58.337Z,64.05
2023-02-08T02:56:37.138Z,65.68
2023-02-08T02:59:23.932Z,64.00
2023-02-08T03:02:23.044Z,62.68
2023-02-08T03:04:54.519Z,61.76
2023-02-08T03:07:40.280Z,61.40
2023-02-08T03:10:44.968Z,61.30
2023-02-08T03:13:37.860Z,60.61
2023-02-08T03:16:43.991Z,59.92
2023-02-08T03:19:47.983Z,59.94
2023-02-08T03:23:21.543Z,60.18
2023-02-08T03:26:28.063Z,59.67
2023-02-08T03:29:55.410Z,59.41
2023-02-08T03:33:10.594Z,59.73
2023-02-08T03:35:57.453Z,63.39
2023-02-08T03:38:56.557Z,65.72
2023-02-08T03:42:11.141Z,64.65
2023-02-08T03:45:13.706Z,62.90
2023-02-08T03:47:58.568Z,61.86
2023-02-08T03:50:48.338Z,60.90
2023-02-08T03:53:30.547Z,61.23
2023-02-08T03:56:16.057Z,60.58
2023-02-08T03:59:17.982Z,60.05
2023-02-08T04:02:11.790Z,58.62
2023-02-08T04:04:48.730Z,60.05
2023-02-08T04:07:26.222Z,62.03
2023-02-08T04:10:26.693Z,64.63
2023-02-08T04:13:04.654Z,64.31
2023-02-08T04:15:35.640Z,62.27
2023-02-08T04:18:09.701Z,59.93
2023-02-08T04:20:40.935Z,57.55
2023-02-08T04:23:14.660Z,58.68
2023-02-08T04:25:43.335Z,60.26
2023-02-08T04:28:22.323Z,62.76
2023-02-08T04:30:51.132Z,66.27
2023-02-08T04:33:22.200Z,64.90
2023-02-08T04:35:53.476Z,63.43
2023-02-08T04:38:33.538Z,62.98
2023-02-08T04:41:09.369Z,61.52
2023-02-08T04:43:40.836Z,60.75
2023-02-08T04:46:11.755Z,59.50
2023-02-08T04:48:40.414Z,58.57
2023-02-08T04:51:13.601Z,60.48
2023-02-08T04:53:44.952Z,61.56
2023-02-08T04:56:15.842Z,65.86
2023-02-08T04:58:46.733Z,65.33
2023-02-08T05:01:18.220Z,63.41
2023-02-08T05:03:54.097Z,61.22
2023-02-08T05:06:25.780Z,58.86
2023-02-08T05:08:59.166Z,57.87
2023-02-08T05:11:30.650Z,58.86
2023-02-08T05:14:12.316Z,59.97
2023-02-08T05:16:40.791Z,65.76
2023-02-08T05:19:17.975Z,67.86
2023-02-08T05:22:06.494Z,65.26
2023-02-08T05:24:38.212Z,61.59
2023-02-08T05:27:06.976Z,60.22
2023-02-08T05:29:40.779Z,57.69
2023-02-08T05:32:14.063Z,55.78
2023-02-08T05:34:42.541Z,56.01
2023-02-08T05:37:14.204Z,56.94
2023-02-08T05:39:42.674Z,57.35
2023-02-08T05:42:13.304Z,56.57
2023-02-08T05:44:47.824Z,57.21
2023-02-08T05:47:18.954Z,58.62
2023-02-08T05:49:47.548Z,62.20
2023-02-08T05:52:16.132Z,69.45
2023-02-08T05:55:04.071Z,67.72
2023-02-08T05:57:38.288Z,64.67
2023-02-08T06:00:10.348Z,63.86
2023-02-08T06:02:47.274Z,62.35
2023-02-08T06:05:18.568Z,60.76
2023-02-08T06:07:54.722Z,58.82
2023-02-08T06:10:26.179Z,55.30
2023-02-08T06:12:56.843Z,56.60
2023-02-08T06:15:43.485Z,57.32
2023-02-08T06:18:23.464Z,57.82
2023-02-08T06:20:54.708Z,59.02
2023-02-08T06:23:26.159Z,58.80
2023-02-08T06:25:57.883Z,57.81
2023-02-08T06:28:30.810Z,57.76
2023-02-08T06:31:01.784Z,57.01
2023-02-08T06:33:32.488Z,57.24
2023-02-08T06:36:03.962Z,58.12
2023-02-08T06:38:32.659Z,59.57
2023-02-08T06:41:25.613Z,62.79
2023-02-08T06:43:59.386Z,69.10
2023-02-08T06:46:48.114Z,69.82
2023-02-08T06:49:21.694Z,66.23
2023-02-08T06:51:52.860Z,65.14
2023-02-08T06:54:21.748Z,62.28
2023-02-08T06:56:54.480Z,59.61
2023-02-08T06:59:30.385Z,55.31
2023-02-08T07:02:20.726Z,57.27
2023-02-08T07:04:51.607Z,60.75
2023-02-08T07:07:20.408Z,64.00
2023-02-08T07:09:48.980Z,62.80
2023-02-08T07:12:26.265Z,60.88
2023-02-08T07:15:01.107Z,58.15
2023-02-08T07:17:31.934Z,58.26
2023-02-08T07:20:06.143Z,60.43
2023-02-08T07:22:52.969Z,62.06
2023-02-08T07:25:32.502Z,65.21
2023-02-08T07:28:01.397Z,62.11
2023-02-08T07:30:56.390Z,58.55
2023-02-08T07:33:30.086Z,56.64
2023-02-08T07:36:01.671Z,58.69
2023-02-08T07:38:34.014Z,58.30
2023-02-08T07:41:16.725Z,63.22
2023-02-08T07:43:48.444Z,63.77
2023-02-08T07:46:29.864Z,61.50
2023-02-08T07:49:00.824Z,58.77
2023-02-08T07:51:34.301Z,58.73
2023-02-08T07:54:08.115Z,59.95
2023-02-08T07:56:41.911Z,58.06
2023-02-08T07:59:15.921Z,57.43
2023-02-08T08:01:47.389Z,58.28
2023-02-08T08:04:16.625Z,58.87
2023-02-08T08:06:46.804Z,58.40
2023-02-08T08:09:15.516Z,58.28
2023-02-08T08:11:43.902Z,58.16
2023-02-08T08:14:12.032Z,57.58
2023-02-08T08:16:40.726Z,57.96
2023-02-08T08:19:12.158Z,63.23
2023-02-08T08:21:43.508Z,64.15
2023-02-08T08:24:11.905Z,55.07
2023-02-08T08:27:00.843Z,51.80
2023-02-08T08:29:29.315Z,53.30
2023-02-08T08:31:57.846Z,54.10
2023-02-08T08:34:30.285Z,57.50
2023-02-08T08:37:14.267Z,59.63
2023-02-08T08:39:43.516Z,60.31
2023-02-08T08:42:15.168Z,59.06
2023-02-08T08:44:44.901Z,60.86
2023-02-08T08:47:13.562Z,64.36
2023-02-08T08:49:53.565Z,62.38
2023-02-08T08:52:21.992Z,59.70
2023-02-08T08:54:50.345Z,56.93
2023-02-08T08:57:21.338Z,55.16
2023-02-08T08:59:55.010Z,54.20
2023-02-08T09:02:23.386Z,54.36
2023-02-08T09:04:52.380Z,57.84
2023-02-08T09:07:20.857Z,59.93
2023-02-08T09:09:49.408Z,58.36
2023-02-08T09:12:29.792Z,58.42
2023-02-08T09:15:01.359Z,58.63
2023-02-08T09:17:31.975Z,62.30
2023-02-08T09:20:00.249Z,57.19
2023-02-08T09:22:28.494Z,54.65
2023-02-08T09:25:02.333Z,54.98
2023-02-08T09:27:30.705Z,56.90
2023-02-08T09:30:02.020Z,58.42
2023-02-08T09:32:36.874Z,60.33
2023-02-08T09:35:09.083Z,61.14
2023-02-08T09:37:37.938Z,60.74
2023-02-08T09:40:06.830Z,60.47
2023-02-08T09:42:55.183Z,61.16
2023-02-08T09:45:41.325Z,61.69
2023-02-08T09:48:29.427Z,61.48
2023-02-08T09:51:10.794Z,60.31
2023-02-08T09:53:50.464Z,59.72
2023-02-08T09:56:28.686Z,59.74
2023-02-08T09:59:06.649Z,60.27
2023-02-08T10:01:35.542Z,60.01
2023-02-08T10:04:16.096Z,59.73
2023-02-08T10:06:50.275Z,59.54
2023-02-08T10:09:22.521Z,59.24
2023-02-08T10:12:00.100Z,60.15
2023-02-08T10:14:37.678Z,59.57
2023-02-08T10:17:52.033Z,59.71
2023-02-08T10:20:28.597Z,59.83
2023-02-08T10:23:55.971Z,59.03
2023-02-08T10:26:57.511Z,59.67
2023-02-08T10:29:40.356Z,59.47
2023-02-08T10:32:44.448Z,59.50
2023-02-08T10:35:42.692Z,59.43
2023-02-08T10:38:21.230Z,59.52
2023-02-08T10:41:02.396Z,59.60
2023-02-08T10:43:40.729Z,59.13
2023-02-08T10:46:29.148Z,56.01
2023-02-08T10:49:46.286Z,54.11
2023-02-08T10:52:14.812Z,58.02
2023-02-08T10:54:45.645Z,56.48
2023-02-08T10:57:21.970Z,55.65
2023-02-08T10:59:59.301Z,57.21
2023-02-08T11:02:35.482Z,53.47
2023-02-08T11:05:15.575Z,55.40
2023-02-08T11:07:49.522Z,57.12
2023-02-08T11:10:27.278Z,57.31
2023-02-08T11:13:46.270Z,57.49
2023-02-08T11:16:59.869Z,57.29
2023-02-08T11:19:58.085Z,57.60
2023-02-08T11:22:29.009Z,55.81
2023-02-08T11:25:07.422Z,56.54
2023-02-08T11:27:51.254Z,57.04
2023-02-08T11:30:33.282Z,56.91
2023-02-08T11:33:27.937Z,56.43
2023-02-08T11:36:46.941Z,57.14
2023-02-08T11:39:43.131Z,55.45
2023-02-08T11:42:52.159Z,56.53
2023-02-08T11:45:45.912Z,54.64
2023-02-08T11:48:34.496Z,55.69
2023-02-08T11:51:03.699Z,53.99
2023-02-08T11:53:39.854Z,55.40
2023-02-08T11:56:23.324Z,53.41
2023-02-08T11:59:20.208Z,51.39
2023-02-08T12:02:58.621Z,53.35
2023-02-08T12:06:01.260Z,54.54
2023-02-08T12:09:30.282Z,55.94
2023-02-08T12:12:14.470Z,54.94
2023-02-08T12:15:30.997Z,52.97
2023-02-08T12:19:01.412Z,54.00
2023-02-08T12:21:54.644Z,51.86
2023-02-08T12:25:28.984Z,51.85
2023-02-08T12:28:27.166Z,50.10
2023-02-08T12:31:09.354Z,50.56
2023-02-08T12:34:27.735Z,49.75
2023-02-08T12:37:41.274Z,50.28
2023-02-08T12:41:04.049Z,52.57
2023-02-08T12:44:27.804Z,54.39
2023-02-08T12:47:04.542Z,50.52
2023-02-08T12:49:58.173Z,50.00
2023-02-08T12:52:32.184Z,50.36
2023-02-08T12:55:34.336Z,51.63
2023-02-08T12:58:29.041Z,51.36
2023-02-08T13:01:32.143Z,54.13
2023-02-08T13:04:40.456Z,54.42
2023-02-08T13:07:38.578Z,52.22
2023-02-08T13:10:07.469Z,50.93
2023-02-08T13:13:06.951Z,51.75
2023-02-08T13:16:21.858Z,51.55
2023-02-08T13:19:22.574Z,53.48
2023-02-08T13:21:52.075Z,55.07
2023-02-08T13:24:32.021Z,52.80
2023-02-08T13:27:05.733Z,52.91
2023-02-08T13:29:35.615Z,52.92
2023-02-08T13:32:29.722Z,53.34
2023-02-08T13:35:17.553Z,52.98
2023-02-08T13:38:17.364Z,54.84
2023-02-08T13:40:46.149Z,54.03
2023-02-08T13:43:35.697Z,52.71
2023-02-08T13:46:27.422Z,52.56
2023-02-08T13:48:57.920Z,52.83
2023-02-08T13:51:29.395Z,53.34
2023-02-08T13:53:57.656Z,53.37
2023-02-08T13:57:00.698Z,54.30
2023-02-08T14:00:42.177Z,54.45
2023-02-08T14:03:19.214Z,53.81
2023-02-08T14:05:58.123Z,53.90
2023-02-08T14:08:55.687Z,54.71
2023-02-08T14:11:49.839Z,55.45
2023-02-08T14:14:24.107Z,55.17
2023-02-08T14:17:07.752Z,56.35
2023-02-08T14:19:37.917Z,57.43
2023-02-08T14:22:14.410Z,56.60
2023-02-08T14:24:48.380Z,56.21
2023-02-08T14:27:37.047Z,56.22
2023-02-08T14:30:42.263Z,56.27
2023-02-08T14:33:17.843Z,56.77
2023-02-08T14:36:00.911Z,56.31
2023-02-08T14:38:36.420Z,57.36
2023-02-08T14:41:10.588Z,58.21
2023-02-08T14:43:41.302Z,58.70
2023-02-08T14:46:39.151Z,59.08
2023-02-08T14:49:12.087Z,59.33
2023-02-08T14:51:45.547Z,59.69
2023-02-08T14:54:29.938Z,59.66
2023-02-08T14:57:02.723Z,59.81
2023-02-08T14:59:38.987Z,59.82
2023-02-08T15:02:16.060Z,60.20
2023-02-08T15:04:47.409Z,60.56
2023-02-08T15:08:04.735Z,60.92
2023-02-08T15:10:33.534Z,61.11
2023-02-08T15:13:06.564Z,61.11
2023-02-08T15:15:44.110Z,61.29
2023-02-08T15:18:41.662Z,61.01
2023-02-08T15:21:18.084Z,61.05
2023-02-08T15:24:20.398Z,61.83
2023-02-08T15:26:54.290Z,61.59
2023-02-08T15:29:42.707Z,61.45
2023-02-08T15:32:21.859Z,61.92
2023-02-08T15:35:14.017Z,62.07
2023-02-08T15:37:44.244Z,64.91
2023-02-08T15:40:41.602Z,66.43
2023-02-08T15:43:31.886Z,65.69
2023-02-08T15:49:28.592Z,56.48
2023-02-08T15:52:02.966Z,51.88
2023-02-08T15:54:43.015Z,51.76
2023-02-08T15:58:35.751Z,52.80
2023-02-08T16:01:04.898Z,52.94
2023-02-08T16:03:41.208Z,52.95
2023-02-08T16:06:14.350Z,52.94
2023-02-08T16:08:47.305Z,53.14
2023-02-08T16:11:32.276Z,53.26
2023-02-08T16:14:02.080Z,53.85
2023-02-08T16:16:47.601Z,55.22
2023-02-08T16:19:29.887Z,55.42
2023-02-08T16:22:25.994Z,56.96
2023-02-08T16:24:57.035Z,56.70
2023-02-08T16:27:27.736Z,56.71
2023-02-08T16:29:55.862Z,57.20
2023-02-08T16:32:34.688Z,57.77
2023-02-08T16:35:29.655Z,58.10
2023-02-08T16:38:00.881Z,58.84
2023-02-08T16:40:43.701Z,59.48
2023-02-08T16:43:31.984Z,59.55
2023-02-08T16:46:24.618Z,60.34
2023-02-08T16:48:55.423Z,60.18
2023-02-08T16:51:29.878Z,61.02
2023-02-08T16:54:11.778Z,64.27
2023-02-08T16:56:41.392Z,74.14
2023-02-08T16:59:11.000Z,70.78
2023-02-08T17:01:46.599Z,63.62
2023-02-08T17:04:15.114Z,59.61
2023-02-08T17:06:43.959Z,55.15
2023-02-08T17:09:13.321Z,53.96
2023-02-08T17:11:41.884Z,54.32
2023-02-08T17:14:10.459Z,54.43
2023-02-08T17:16:40.280Z,54.91
2023-02-08T17:19:15.917Z,54.23
2023-02-08T17:21:46.653Z,54.76
2023-02-08T17:24:17.696Z,57.50
2023-02-08T17:26:48.470Z,57.29
2023-02-08T17:29:46.109Z,58.42
2023-02-08T17:32:17.666Z,59.95
2023-02-08T17:34:48.492Z,68.82
2023-02-08T17:37:17.087Z,67.32
2023-02-08T17:39:50.398Z,64.59
2023-02-08T17:42:23.721Z,60.24
2023-02-08T17:44:54.770Z,56.91
2023-02-08T17:47:26.250Z,55.13
2023-02-08T17:49:54.915Z,53.49
2023-02-08T17:52:23.292Z,53.99
2023-02-08T17:54:51.924Z,53.66
2023-02-08T17:57:23.801Z,52.32
2023-02-08T17:59:55.080Z,51.33
2023-02-08T18:02:23.627Z,50.73
2023-02-08T18:05:06.686Z,49.69
2023-02-08T18:07:39.993Z,49.16
2023-02-08T18:10:11.223Z,48.69
2023-02-08T18:12:41.603Z,47.86
2023-02-08T18:15:19.993Z,46.60
2023-02-08T18:21:43.649Z,47.30
2023-02-08T18:24:14.403Z,46.65
2023-02-08T18:26:45.730Z,47.24
2023-02-08T18:32:23.376Z,48.24
2023-02-08T18:35:01.713Z,47.71
2023-02-08T18:37:49.649Z,47.06
2023-02-08T18:40:26.562Z,46.60
2023-02-08T18:42:57.457Z,46.77
2023-02-08T18:45:28.131Z,46.81
2023-02-08T18:48:04.158Z,47.11
2023-02-08T18:50:35.155Z,46.69
2023-02-08T18:53:03.972Z,46.59
2023-02-08T18:55:37.339Z,46.53
2023-02-08T18:58:08.862Z,46.11
2023-02-08T19:00:47.421Z,45.70
2023-02-08T19:03:27.118Z,45.98
2023-02-08T19:06:27.150Z,45.78
2023-02-08T19:08:56.745Z,45.16
2023-02-08T19:11:39.659Z,45.38
2023-02-08T19:14:12.520Z,45.72
2023-02-08T19:16:44.503Z,46.15
2023-02-08T19:19:16.159Z,46.35
2023-02-08T19:21:49.685Z,46.10
2023-02-08T19:24:23.394Z,45.93
2023-02-08T19:26:59.422Z,46.45
2023-02-08T19:29:38.241Z,46.59
2023-02-08T19:32:16.286Z,46.86
2023-02-08T19:35:10.202Z,47.73
2023-02-08T19:37:54.218Z,47.38
2023-02-08T19:40:30.996Z,47.15
2023-02-08T19:43:04.932Z,47.35
2023-02-08T19:46:29.766Z,47.66
2023-02-08T19:49:00.689Z,46.91
2023-02-08T19:51:32.393Z,47.16
2023-02-08T19:54:06.985Z,47.29
2023-02-08T19:56:50.450Z,46.55
2023-02-08T19:59:27.162Z,46.52
2023-02-08T20:01:56.250Z,46.88
2023-02-08T20:04:30.585Z,46.97
2023-02-08T20:06:59.076Z,46.68
2023-02-08T20:09:29.721Z,46.45
2023-02-08T20:11:59.791Z,46.04
2023-02-08T20:14:30.581Z,46.05
2023-02-08T20:17:01.188Z,46.01
2023-02-08T20:19:31.920Z,46.10
2023-02-08T20:22:08.318Z,46.22
2023-02-08T20:24:36.853Z,46.17
2023-02-08T20:27:08.456Z,45.63
2023-02-08T20:29:40.060Z,45.20
2023-02-08T20:32:14.103Z,45.85
2023-02-08T20:34:58.421Z,46.14
2023-02-08T20:37:31.117Z,46.62
2023-02-08T20:40:23.335Z,46.73
2023-02-08T20:42:52.224Z,46.60
2023-02-08T20:45:21.218Z,46.41
2023-02-08T20:47:54.893Z,46.96
2023-02-08T20:50:23.857Z,47.28
2023-02-08T20:52:52.605Z,47.07
2023-02-08T20:55:46.724Z,46.79
2023-02-08T20:58:37.998Z,46.74
2023-02-08T21:01:18.488Z,46.08
2023-02-08T21:03:47.445Z,46.10
2023-02-08T21:06:21.967Z,45.42
2023-02-08T21:08:54.647Z,45.32
2023-02-08T21:11:27.931Z,45.67
2023-02-08T21:13:59.587Z,45.44
2023-02-08T21:16:28.334Z,45.48
2023-02-08T21:19:00.046Z,46.05
2023-02-08T21:21:31.483Z,46.07
2023-02-08T21:24:03.549Z,45.65
2023-02-08T21:26:34.997Z,45.13
2023-02-08T21:29:06.215Z,45.08
2023-02-08T21:31:36.684Z,44.93
2023-02-08T21:34:25.224Z,44.89
2023-02-08T21:37:01.887Z,45.20
2023-02-08T21:39:50.541Z,44.48
2023-02-08T21:42:33.169Z,43.96
2023-02-08T21:45:04.091Z,44.15
2023-02-08T21:47:52.534Z,43.95
2023-02-08T21:50:42.725Z,43.49
2023-02-08T21:53:35.882Z,43.10
2023-02-08T21:56:09.332Z,43.45
2023-02-08T21:58:43.365Z,43.26
2023-02-08T22:01:14.386Z,43.43
2023-02-08T22:03:45.982Z,44.04
2023-02-08T22:06:35.449Z,44.68
2023-02-08T22:09:47.757Z,45.67
2023-02-08T22:12:21.046Z,45.56
2023-02-08T22:14:50.076Z,45.74
2023-02-08T22:17:24.665Z,45.95
2023-02-08T22:20:00.829Z,46.20
2023-02-08T22:22:37.910Z,46.36
2023-02-08T22:25:09.257Z,46.06
2023-02-08T22:27:41.315Z,45.94
2023-02-08T22:30:32.108Z,45.48
2023-02-08T22:33:08.491Z,44.48
2023-02-08T22:35:39.619Z,43.79
2023-02-08T22:38:22.733Z,43.01
2023-02-08T22:40:54.030Z,43.49
2023-02-08T22:43:25.849Z,44.24
2023-02-08T22:46:03.165Z,44.67
2023-02-08T22:48:51.592Z,44.83
2023-02-08T22:51:23.761Z,44.35
2023-02-08T22:53:56.339Z,43.68
2023-02-08T22:56:29.912Z,43.34
2023-02-08T22:59:09.870Z,42.65
2023-02-08T23:01:41.709Z,42.57
2023-02-08T23:04:23.538Z,42.91
2023-02-08T23:07:14.773Z,43.29
2023-02-08T23:09:46.806Z,44.15
2023-02-08T23:12:18.366Z,44.75
2023-02-08T23:14:56.270Z,45.56
2023-02-08T23:17:54.948Z,46.34
2023-02-08T23:20:29.543Z,47.55
2023-02-08T23:23:23.550Z,48.37
2023-02-08T23:26:21.336Z,48.64
2023-02-08T23:28:51.208Z,46.88
2023-02-08T23:31:30.118Z,45.59
2023-02-08T23:34:46.529Z,45.17
2023-02-08T23:37:55.483Z,44.84
2023-02-08T23:40:36.342Z,44.81
2023-02-08T23:43:18.962Z,44.97
2023-02-08T23:46:10.172Z,45.09
2023-02-08T23:49:01.636Z,45.53
2023-02-08T23:51:38.669Z,45.21
2023-02-08T23:54:09.856Z,44.30
2023-02-08T23:57:13.652Z,43.87
2023-02-08T23:59:50.612Z,44.05
